aviador You're here:

GMME Decoded Metar

RABAT in MOROCCO
Report Time2017-12-15 19:30:00
UTC Time2017-12-15 19:52:11
Flight Rules mvfr MVFR
Wind230° at 09 kt
W.Decomp.*RWY 21: 8.3 kt HW 3.4 kt RCW
W.Rank230° ranks 24
Current wind is above 230° avg. (7.5)
Visibility8000 m
Phenomena:N/A
Clouds:Broken 026 Hf
Broken 070 Hf
Expected CloudBase > 1,200 ft AGL from Temp-Dew spread
Ceiling2,600 ft
Temp16°C (ISA +1)
Dew Point13°C (83% RH)
AAT13.7°C
QNH1018 hPa
Density Alt453 ft
Elevation246 ft
Report Wrong Elevation
Raw Report
GMME 151930Z 23009KT 8000 BKN026 BKN070 16/13 Q1018 TEMPO RA=

Extra information for GMME:More info

Metar Taf Metar & Taf Last 4 Metars F.Rules Stats Wind Profile Meteogram Temp Stats Airport Information Weather charts Add Link Nearby VenuesMetar ALERT Operation Metar Decoded Social comments